首页
METAR-TAF:

METAR-TAF

机场 :

Roanoke Regional Airport (Woodrum Field)

羅阿諾克, 弗吉尼亚州, 美国

纬度: 37-19-01N, 经度: 079-58-27W, 海拔: 358米

当前天气观测

该预报发布于51分钟前的02:54 UTC
静风
温度 22°C
湿度 88%
气压 1023 hPa
能見度: 16.1公里
多云层高于1800英尺
多云层高于7000英尺

METAR: KROA 170254Z 00000KT 10SM BKN018 BKN070 22/20 A3020 RMK AO2 SLP216 60001 T02220200 50019

时间: 23:45 (03:45 UTC)

预报

该预报发布于39分钟前的03:06 UTC
预报有效从17日的 03点(UTC)到 17日的 24点(UTC)
风速节,风向
能見度: 10公里
多云层高于1800英尺
多云层高于7000英尺
从 17日的 0800点(UTC)
风速2节,风向多变
能見度: 10公里
多云层高于1200英尺
从 17日的 1500点(UTC)
风速3节,风向多变
能見度: 10公里
散云层高于1500英尺
从 17日的 1800点(UTC)
风速3节,风向多变
能見度: 10公里
多云层高于4000英尺

TAF: KROA 170306Z 1703/1724 00000KT P6SM BKN018 BKN070 FM170800 VRB02KT P6SM BKN012 FM171500 VRB03KT P6SM SCT015 FM171800 VRB03KT P6SM BKN040

超过4000个机场的气象观测和天气预报(METAR&TAF报告)。

可查询的气象台以黄色和红色小点在地图上表示。

将鼠标移到小点上方,可查看气象台名称。

然后点击查看天气观测和预报。

如需切换地图:点击带黑十字的绿色按钮放大地图;点击带横线的绿色按钮缩小地图;或者点击绿色箭头查看邻近地区的地图。


METAR-TAF: